sensor_id;sensor_type;location;lat;lon;timestamp;P1;durP1;ratioP1;P2;durP2;ratioP2
13580;SDS011;6861;46.170;7.222;2023-03-01T00:01:20;19.90;;;13.43;;
13580;SDS011;6861;46.170;7.222;2023-03-01T00:03:49;16.13;;;13.47;;
13580;SDS011;6861;46.170;7.222;2023-03-01T00:06:17;17.57;;;13.80;;
13580;SDS011;6861;46.170;7.222;2023-03-01T00:08:46;17.90;;;13.77;;
13580;SDS011;6861;46.170;7.222;2023-03-01T00:11:15;19.10;;;13.67;;
13580;SDS011;6861;46.170;7.222;2023-03-01T00:13:45;19.67;;;13.73;;
13580;SDS011;6861;46.170;7.222;2023-03-01T00:16:14;17.90;;;13.80;;
13580;SDS011;6861;46.170;7.222;2023-03-01T00:18:45;17.10;;;13.67;;
13580;SDS011;6861;46.170;7.222;2023-03-01T00:21:14;18.17;;;14.00;;
13580;SDS011;6861;46.170;7.222;2023-03-01T00:23:42;19.40;;;14.37;;
13580;SDS011;6861;46.170;7.222;2023-03-01T00:26:11;17.50;;;13.63;;
13580;SDS011;6861;46.170;7.222;2023-03-01T00:28:41;18.47;;;13.97;;
13580;SDS011;6861;46.170;7.222;2023-03-01T00:31:10;18.30;;;13.87;;
13580;SDS011;6861;46.170;7.222;2023-03-01T00:33:40;16.10;;;13.23;;
13580;SDS011;6861;46.170;7.222;2023-03-01T00:36:10;17.40;;;13.27;;
13580;SDS011;6861;46.170;7.222;2023-03-01T00:38:41;15.00;;;12.20;;
13580;SDS011;6861;46.170;7.222;2023-03-01T00:41:12;17.83;;;12.83;;
13580;SDS011;6861;46.170;7.222;2023-03-01T00:43:41;16.97;;;14.10;;
13580;SDS011;6861;46.170;7.222;2023-03-01T00:46:11;19.23;;;14.47;;
13580;SDS011;6861;46.170;7.222;2023-03-01T00:48:41;21.47;;;14.07;;
13580;SDS011;6861;46.170;7.222;2023-03-01T00:51:11;17.17;;;13.63;;
13580;SDS011;6861;46.170;7.222;2023-03-01T00:53:41;16.23;;;12.97;;
13580;SDS011;6861;46.170;7.222;2023-03-01T00:56:11;19.60;;;14.97;;
13580;SDS011;6861;46.170;7.222;2023-03-01T00:58:40;18.30;;;14.00;;
13580;SDS011;6861;46.170;7.222;2023-03-01T01:01:09;16.93;;;13.47;;
13580;SDS011;6861;46.170;7.222;2023-03-01T01:03:44;19.73;;;15.03;;
13580;SDS011;6861;46.170;7.222;2023-03-01T01:06:15;17.37;;;13.73;;
13580;SDS011;6861;46.170;7.222;2023-03-01T01:08:44;21.57;;;15.13;;
13580;SDS011;6861;46.170;7.222;2023-03-01T01:11:13;20.17;;;15.00;;
13580;SDS011;6861;46.170;7.222;2023-03-01T01:13:41;20.33;;;14.97;;
13580;SDS011;6861;46.170;7.222;2023-03-01T01:16:11;19.43;;;14.27;;
13580;SDS011;6861;46.170;7.222;2023-03-01T01:18:39;19.30;;;14.63;;
13580;SDS011;6861;46.170;7.222;2023-03-01T01:21:08;21.63;;;16.30;;
13580;SDS011;6861;46.170;7.222;2023-03-01T01:23:39;19.97;;;15.33;;
13580;SDS011;6861;46.170;7.222;2023-03-01T01:26:09;20.27;;;15.03;;
13580;SDS011;6861;46.170;7.222;2023-03-01T01:28:38;19.23;;;14.80;;
13580;SDS011;6861;46.170;7.222;2023-03-01T01:31:06;24.93;;;15.80;;
13580;SDS011;6861;46.170;7.222;2023-03-01T01:33:35;19.57;;;14.67;;
13580;SDS011;6861;46.170;7.222;2023-03-01T01:36:04;22.63;;;15.67;;
13580;SDS011;6861;46.170;7.222;2023-03-01T01:38:32;22.37;;;15.07;;
13580;SDS011;6861;46.170;7.222;2023-03-01T01:41:02;18.93;;;15.00;;
13580;SDS011;6861;46.170;7.222;2023-03-01T01:43:33;19.97;;;15.53;;
13580;SDS011;6861;46.170;7.222;2023-03-01T01:46:03;19.83;;;14.27;;
13580;SDS011;6861;46.170;7.222;2023-03-01T01:48:38;21.07;;;15.13;;
13580;SDS011;6861;46.170;7.222;2023-03-01T01:51:09;19.97;;;14.77;;
13580;SDS011;6861;46.170;7.222;2023-03-01T01:53:41;22.47;;;15.70;;
13580;SDS011;6861;46.170;7.222;2023-03-01T01:56:11;22.43;;;15.30;;
13580;SDS011;6861;46.170;7.222;2023-03-01T01:58:41;22.87;;;15.57;;
13580;SDS011;6861;46.170;7.222;2023-03-01T02:01:10;20.30;;;15.43;;
13580;SDS011;6861;46.170;7.222;2023-03-01T02:03:39;21.67;;;15.87;;
13580;SDS011;6861;46.170;7.222;2023-03-01T02:06:12;20.93;;;15.43;;
13580;SDS011;6861;46.170;7.222;2023-03-01T02:08:45;19.33;;;14.60;;
13580;SDS011;6861;46.170;7.222;2023-03-01T02:11:17;19.03;;;14.50;;
13580;SDS011;6861;46.170;7.222;2023-03-01T02:13:46;21.20;;;15.33;;
13580;SDS011;6861;46.170;7.222;2023-03-01T02:16:16;19.70;;;14.57;;
13580;SDS011;6861;46.170;7.222;2023-03-01T02:18:45;19.00;;;14.40;;
13580;SDS011;6861;46.170;7.222;2023-03-01T02:21:25;19.33;;;14.17;;
13580;SDS011;6861;46.170;7.222;2023-03-01T02:24:08;19.63;;;14.37;;
13580;SDS011;6861;46.170;7.222;2023-03-01T02:26:48;17.33;;;13.90;;
13580;SDS011;6861;46.170;7.222;2023-03-01T02:29:20;18.27;;;13.43;;
13580;SDS011;6861;46.170;7.222;2023-03-01T02:31:49;21.50;;;13.53;;
13580;SDS011;6861;46.170;7.222;2023-03-01T02:34:20;16.63;;;12.53;;
13580;SDS011;6861;46.170;7.222;2023-03-01T02:36:52;19.03;;;13.67;;
13580;SDS011;6861;46.170;7.222;2023-03-01T02:39:23;18.53;;;13.23;;
13580;SDS011;6861;46.170;7.222;2023-03-01T02:41:55;18.30;;;13.70;;
13580;SDS011;6861;46.170;7.222;2023-03-01T02:44:26;23.30;;;14.80;;
13580;SDS011;6861;46.170;7.222;2023-03-01T02:46:55;19.27;;;14.27;;
13580;SDS011;6861;46.170;7.222;2023-03-01T02:49:24;19.70;;;14.33;;
13580;SDS011;6861;46.170;7.222;2023-03-01T02:55:02;23.27;;;14.80;;
13580;SDS011;6861;46.170;7.222;2023-03-01T02:57:34;21.20;;;14.40;;
13580;SDS011;6861;46.170;7.222;2023-03-01T03:00:06;21.50;;;15.20;;
13580;SDS011;6861;46.170;7.222;2023-03-01T03:02:36;18.57;;;14.50;;
13580;SDS011;6861;46.170;7.222;2023-03-01T03:05:06;19.77;;;15.30;;
13580;SDS011;6861;46.170;7.222;2023-03-01T03:07:37;20.50;;;14.80;;
13580;SDS011;6861;46.170;7.222;2023-03-01T03:10:07;20.80;;;14.93;;
13580;SDS011;6861;46.170;7.222;2023-03-01T03:12:38;19.20;;;14.60;;
13580;SDS011;6861;46.170;7.222;2023-03-01T03:15:09;24.07;;;14.33;;
13580;SDS011;6861;46.170;7.222;2023-03-01T03:17:39;22.53;;;14.50;;
13580;SDS011;6861;46.170;7.222;2023-03-01T03:20:12;20.80;;;14.83;;
13580;SDS011;6861;46.170;7.222;2023-03-01T03:22:45;20.27;;;14.93;;
13580;SDS011;6861;46.170;7.222;2023-03-01T03:25:14;21.13;;;15.93;;
13580;SDS011;6861;46.170;7.222;2023-03-01T03:27:43;20.37;;;15.03;;
13580;SDS011;6861;46.170;7.222;2023-03-01T03:30:15;21.83;;;15.20;;
13580;SDS011;6861;46.170;7.222;2023-03-01T03:32:46;23.00;;;14.77;;
13580;SDS011;6861;46.170;7.222;2023-03-01T03:35:19;20.93;;;15.53;;
13580;SDS011;6861;46.170;7.222;2023-03-01T03:37:49;21.50;;;15.57;;
13580;SDS011;6861;46.170;7.222;2023-03-01T03:40:30;19.93;;;14.90;;
13580;SDS011;6861;46.170;7.222;2023-03-01T03:42:59;21.73;;;16.07;;
13580;SDS011;6861;46.170;7.222;2023-03-01T03:45:29;22.60;;;15.80;;
13580;SDS011;6861;46.170;7.222;2023-03-01T03:48:00;21.07;;;14.87;;
13580;SDS011;6861;46.170;7.222;2023-03-01T03:50:28;19.93;;;15.33;;
13580;SDS011;6861;46.170;7.222;2023-03-01T03:52:56;19.90;;;14.70;;
13580;SDS011;6861;46.170;7.222;2023-03-01T03:55:25;21.93;;;15.63;;
13580;SDS011;6861;46.170;7.222;2023-03-01T03:57:57;19.73;;;14.23;;
13580;SDS011;6861;46.170;7.222;2023-03-01T04:00:29;21.57;;;15.17;;
13580;SDS011;6861;46.170;7.222;2023-03-01T04:02:57;20.90;;;15.63;;
13580;SDS011;6861;46.170;7.222;2023-03-01T04:05:27;20.60;;;14.53;;
13580;SDS011;6861;46.170;7.222;2023-03-01T04:07:56;18.77;;;14.03;;
13580;SDS011;6861;46.170;7.222;2023-03-01T04:10:34;19.57;;;14.83;;
13580;SDS011;6861;46.170;7.222;2023-03-01T04:13:05;19.93;;;14.30;;
13580;SDS011;6861;46.170;7.222;2023-03-01T04:15:36;20.67;;;14.43;;
13580;SDS011;6861;46.170;7.222;2023-03-01T04:18:04;20.20;;;13.63;;
13580;SDS011;6861;46.170;7.222;2023-03-01T04:20:34;24.77;;;16.47;;
13580;SDS011;6861;46.170;7.222;2023-03-01T04:23:03;24.23;;;16.40;;
13580;SDS011;6861;46.170;7.222;2023-03-01T04:25:40;22.23;;;14.77;;
13580;SDS011;6861;46.170;7.222;2023-03-01T04:28:10;19.97;;;14.70;;
13580;SDS011;6861;46.170;7.222;2023-03-01T04:30:39;22.30;;;15.20;;
13580;SDS011;6861;46.170;7.222;2023-03-01T04:33:08;22.47;;;15.50;;
13580;SDS011;6861;46.170;7.222;2023-03-01T04:35:37;21.10;;;15.03;;
13580;SDS011;6861;46.170;7.222;2023-03-01T04:38:06;19.53;;;14.30;;
13580;SDS011;6861;46.170;7.222;2023-03-01T04:40:35;22.90;;;16.03;;
13580;SDS011;6861;46.170;7.222;2023-03-01T04:43:03;24.60;;;16.43;;
13580;SDS011;6861;46.170;7.222;2023-03-01T04:45:32;23.83;;;16.07;;
13580;SDS011;6861;46.170;7.222;2023-03-01T04:48:03;22.63;;;15.20;;
13580;SDS011;6861;46.170;7.222;2023-03-01T04:50:32;22.73;;;16.70;;
13580;SDS011;6861;46.170;7.222;2023-03-01T04:53:00;22.97;;;16.27;;
13580;SDS011;6861;46.170;7.222;2023-03-01T04:55:28;20.63;;;15.27;;
13580;SDS011;6861;46.170;7.222;2023-03-01T04:57:58;23.93;;;15.73;;
13580;SDS011;6861;46.170;7.222;2023-03-01T05:00:26;25.30;;;15.83;;
13580;SDS011;6861;46.170;7.222;2023-03-01T05:02:54;21.17;;;14.90;;
13580;SDS011;6861;46.170;7.222;2023-03-01T05:05:26;21.93;;;16.27;;
13580;SDS011;6861;46.170;7.222;2023-03-01T05:07:58;25.53;;;16.30;;
13580;SDS011;6861;46.170;7.222;2023-03-01T05:10:28;23.27;;;15.93;;
13580;SDS011;6861;46.170;7.222;2023-03-01T05:12:58;25.23;;;16.27;;
13580;SDS011;6861;46.170;7.222;2023-03-01T05:15:27;23.03;;;16.63;;
13580;SDS011;6861;46.170;7.222;2023-03-01T05:17:58;22.30;;;16.47;;
13580;SDS011;6861;46.170;7.222;2023-03-01T05:20:29;26.90;;;16.93;;
13580;SDS011;6861;46.170;7.222;2023-03-01T05:22:58;25.70;;;17.47;;
13580;SDS011;6861;46.170;7.222;2023-03-01T05:25:32;24.17;;;16.20;;
13580;SDS011;6861;46.170;7.222;2023-03-01T05:28:01;23.70;;;16.23;;
13580;SDS011;6861;46.170;7.222;2023-03-01T05:30:31;25.10;;;17.30;;
13580;SDS011;6861;46.170;7.222;2023-03-01T05:33:00;23.47;;;15.67;;
13580;SDS011;6861;46.170;7.222;2023-03-01T05:35:31;22.10;;;15.97;;
13580;SDS011;6861;46.170;7.222;2023-03-01T05:38:00;24.90;;;16.33;;
13580;SDS011;6861;46.170;7.222;2023-03-01T05:40:28;22.33;;;15.97;;
13580;SDS011;6861;46.170;7.222;2023-03-01T05:42:56;25.83;;;15.93;;
13580;SDS011;6861;46.170;7.222;2023-03-01T05:45:25;24.10;;;16.07;;
13580;SDS011;6861;46.170;7.222;2023-03-01T05:47:54;23.33;;;16.10;;
13580;SDS011;6861;46.170;7.222;2023-03-01T05:50:23;24.73;;;16.07;;
13580;SDS011;6861;46.170;7.222;2023-03-01T05:52:57;24.77;;;14.90;;
13580;SDS011;6861;46.170;7.222;2023-03-01T05:55:26;24.50;;;16.13;;
13580;SDS011;6861;46.170;7.222;2023-03-01T05:57:57;23.33;;;16.70;;
13580;SDS011;6861;46.170;7.222;2023-03-01T06:00:26;23.87;;;16.57;;
13580;SDS011;6861;46.170;7.222;2023-03-01T06:02:55;27.93;;;17.90;;
13580;SDS011;6861;46.170;7.222;2023-03-01T06:05:24;21.83;;;15.70;;
13580;SDS011;6861;46.170;7.222;2023-03-01T06:07:54;23.60;;;16.83;;
13580;SDS011;6861;46.170;7.222;2023-03-01T06:10:25;24.40;;;16.53;;
13580;SDS011;6861;46.170;7.222;2023-03-01T06:12:54;26.93;;;17.80;;
13580;SDS011;6861;46.170;7.222;2023-03-01T06:15:22;25.23;;;16.77;;
13580;SDS011;6861;46.170;7.222;2023-03-01T06:17:53;23.87;;;16.57;;
13580;SDS011;6861;46.170;7.222;2023-03-01T06:20:26;24.00;;;16.23;;
13580;SDS011;6861;46.170;7.222;2023-03-01T06:22:57;26.57;;;16.60;;
13580;SDS011;6861;46.170;7.222;2023-03-01T06:25:26;23.60;;;17.00;;
13580;SDS011;6861;46.170;7.222;2023-03-01T06:27:55;26.27;;;17.03;;
13580;SDS011;6861;46.170;7.222;2023-03-01T06:30:24;26.87;;;17.70;;
13580;SDS011;6861;46.170;7.222;2023-03-01T06:32:53;27.87;;;17.13;;
13580;SDS011;6861;46.170;7.222;2023-03-01T06:35:27;24.47;;;15.37;;
13580;SDS011;6861;46.170;7.222;2023-03-01T06:37:58;27.27;;;16.37;;
13580;SDS011;6861;46.170;7.222;2023-03-01T06:40:28;24.07;;;16.40;;
13580;SDS011;6861;46.170;7.222;2023-03-01T06:42:57;22.37;;;15.47;;
13580;SDS011;6861;46.170;7.222;2023-03-01T06:45:26;24.67;;;16.83;;
13580;SDS011;6861;46.170;7.222;2023-03-01T06:48:01;27.40;;;17.87;;
13580;SDS011;6861;46.170;7.222;2023-03-01T06:50:30;24.07;;;16.80;;
13580;SDS011;6861;46.170;7.222;2023-03-01T06:53:01;29.67;;;18.90;;
13580;SDS011;6861;46.170;7.222;2023-03-01T06:55:29;25.97;;;17.23;;
13580;SDS011;6861;46.170;7.222;2023-03-01T06:57:58;28.13;;;18.80;;
13580;SDS011;6861;46.170;7.222;2023-03-01T07:00:27;30.13;;;19.33;;
13580;SDS011;6861;46.170;7.222;2023-03-01T07:02:58;30.20;;;19.50;;
13580;SDS011;6861;46.170;7.222;2023-03-01T07:05:28;22.57;;;16.87;;
13580;SDS011;6861;46.170;7.222;2023-03-01T07:07:57;24.83;;;16.60;;
13580;SDS011;6861;46.170;7.222;2023-03-01T07:10:26;25.07;;;16.60;;
13580;SDS011;6861;46.170;7.222;2023-03-01T07:12:55;24.17;;;16.73;;
13580;SDS011;6861;46.170;7.222;2023-03-01T07:15:23;27.63;;;18.53;;
13580;SDS011;6861;46.170;7.222;2023-03-01T07:17:52;32.80;;;22.10;;
13580;SDS011;6861;46.170;7.222;2023-03-01T07:20:20;35.10;;;25.10;;
13580;SDS011;6861;46.170;7.222;2023-03-01T07:22:51;28.87;;;21.27;;
13580;SDS011;6861;46.170;7.222;2023-03-01T07:25:20;30.43;;;21.60;;
13580;SDS011;6861;46.170;7.222;2023-03-01T07:27:50;22.40;;;16.77;;
13580;SDS011;6861;46.170;7.222;2023-03-01T07:30:19;26.67;;;20.27;;
13580;SDS011;6861;46.170;7.222;2023-03-01T07:32:47;27.07;;;17.20;;
13580;SDS011;6861;46.170;7.222;2023-03-01T07:35:16;26.90;;;18.70;;
13580;SDS011;6861;46.170;7.222;2023-03-01T07:37:44;27.17;;;18.77;;
13580;SDS011;6861;46.170;7.222;2023-03-01T07:40:12;23.67;;;16.87;;
13580;SDS011;6861;46.170;7.222;2023-03-01T07:42:40;30.73;;;19.67;;
13580;SDS011;6861;46.170;7.222;2023-03-01T07:45:10;26.00;;;18.30;;
13580;SDS011;6861;46.170;7.222;2023-03-01T07:47:39;22.77;;;16.27;;
13580;SDS011;6861;46.170;7.222;2023-03-01T07:50:08;23.80;;;15.73;;
13580;SDS011;6861;46.170;7.222;2023-03-01T07:52:37;22.77;;;16.20;;
13580;SDS011;6861;46.170;7.222;2023-03-01T07:55:06;23.50;;;16.43;;
13580;SDS011;6861;46.170;7.222;2023-03-01T07:57:34;25.50;;;17.23;;
13580;SDS011;6861;46.170;7.222;2023-03-01T08:00:03;26.37;;;18.13;;
13580;SDS011;6861;46.170;7.222;2023-03-01T08:02:33;26.23;;;18.23;;
13580;SDS011;6861;46.170;7.222;2023-03-01T08:05:01;48.30;;;29.97;;
13580;SDS011;6861;46.170;7.222;2023-03-01T08:07:29;33.90;;;21.83;;
13580;SDS011;6861;46.170;7.222;2023-03-01T08:09:57;22.23;;;16.50;;
13580;SDS011;6861;46.170;7.222;2023-03-01T08:12:25;21.30;;;16.23;;
13580;SDS011;6861;46.170;7.222;2023-03-01T08:14:54;27.73;;;19.47;;
13580;SDS011;6861;46.170;7.222;2023-03-01T08:17:23;22.00;;;15.27;;
13580;SDS011;6861;46.170;7.222;2023-03-01T08:19:52;20.50;;;14.97;;
13580;SDS011;6861;46.170;7.222;2023-03-01T08:22:20;20.80;;;16.13;;
13580;SDS011;6861;46.170;7.222;2023-03-01T08:24:48;20.20;;;16.23;;
13580;SDS011;6861;46.170;7.222;2023-03-01T08:27:16;21.73;;;17.03;;
13580;SDS011;6861;46.170;7.222;2023-03-01T08:29:45;57.33;;;39.80;;
13580;SDS011;6861;46.170;7.222;2023-03-01T08:32:13;43.47;;;31.17;;
13580;SDS011;6861;46.170;7.222;2023-03-01T08:34:41;38.83;;;30.75;;
13580;SDS011;6861;46.170;7.222;2023-03-01T08:37:10;29.00;;;23.30;;
13580;SDS011;6861;46.170;7.222;2023-03-01T08:39:38;18.77;;;16.75;;
13580;SDS011;6861;46.170;7.222;2023-03-01T08:42:06;19.85;;;16.60;;
13580;SDS011;6861;46.170;7.222;2023-03-01T08:44:34;19.60;;;16.95;;
13580;SDS011;6861;46.170;7.222;2023-03-01T08:47:02;21.70;;;16.50;;
13580;SDS011;6861;46.170;7.222;2023-03-01T08:49:31;21.33;;;16.73;;
13580;SDS011;6861;46.170;7.222;2023-03-01T08:52:01;20.63;;;17.20;;
13580;SDS011;6861;46.170;7.222;2023-03-01T08:54:31;19.83;;;17.30;;
13580;SDS011;6861;46.170;7.222;2023-03-01T08:57:00;17.95;;;16.05;;
13580;SDS011;6861;46.170;7.222;2023-03-01T08:59:29;18.35;;;16.45;;
13580;SDS011;6861;46.170;7.222;2023-03-01T09:02:02;17.88;;;15.98;;
13580;SDS011;6861;46.170;7.222;2023-03-01T09:04:30;21.05;;;18.92;;
13580;SDS011;6861;46.170;7.222;2023-03-01T09:06:59;18.23;;;16.35;;
13580;SDS011;6861;46.170;7.222;2023-03-01T09:09:27;17.83;;;15.95;;
13580;SDS011;6861;46.170;7.222;2023-03-01T09:11:57;17.42;;;15.73;;
13580;SDS011;6861;46.170;7.222;2023-03-01T09:14:25;17.60;;;15.82;;
13580;SDS011;6861;46.170;7.222;2023-03-01T09:16:53;17.08;;;15.40;;
13580;SDS011;6861;46.170;7.222;2023-03-01T09:19:21;17.70;;;15.90;;
13580;SDS011;6861;46.170;7.222;2023-03-01T09:21:52;17.58;;;15.95;;
13580;SDS011;6861;46.170;7.222;2023-03-01T09:24:23;18.33;;;16.42;;
13580;SDS011;6861;46.170;7.222;2023-03-01T09:26:52;18.17;;;16.48;;
13580;SDS011;6861;46.170;7.222;2023-03-01T09:29:23;17.13;;;15.52;;
13580;SDS011;6861;46.170;7.222;2023-03-01T09:31:52;17.77;;;16.02;;
13580;SDS011;6861;46.170;7.222;2023-03-01T09:34:22;18.17;;;16.48;;
13580;SDS011;6861;46.170;7.222;2023-03-01T09:36:50;18.23;;;16.42;;
13580;SDS011;6861;46.170;7.222;2023-03-01T09:39:18;17.75;;;16.10;;
13580;SDS011;6861;46.170;7.222;2023-03-01T09:41:48;18.02;;;16.40;;
13580;SDS011;6861;46.170;7.222;2023-03-01T09:44:29;18.05;;;16.35;;
13580;SDS011;6861;46.170;7.222;2023-03-01T09:47:03;19.48;;;17.67;;
13580;SDS011;6861;46.170;7.222;2023-03-01T09:49:33;18.95;;;16.95;;
13580;SDS011;6861;46.170;7.222;2023-03-01T09:52:03;18.50;;;16.83;;
13580;SDS011;6861;46.170;7.222;2023-03-01T09:54:41;19.42;;;17.52;;
13580;SDS011;6861;46.170;7.222;2023-03-01T09:57:15;18.85;;;17.13;;
13580;SDS011;6861;46.170;7.222;2023-03-01T09:59:52;19.55;;;17.65;;
13580;SDS011;6861;46.170;7.222;2023-03-01T10:02:33;19.95;;;18.15;;
13580;SDS011;6861;46.170;7.222;2023-03-01T10:05:12;19.27;;;17.48;;
13580;SDS011;6861;46.170;7.222;2023-03-01T10:07:54;19.30;;;17.60;;
13580;SDS011;6861;46.170;7.222;2023-03-01T10:10:34;20.42;;;18.33;;
13580;SDS011;6861;46.170;7.222;2023-03-01T10:13:08;19.27;;;17.58;;
13580;SDS011;6861;46.170;7.222;2023-03-01T10:15:45;18.80;;;17.10;;
13580;SDS011;6861;46.170;7.222;2023-03-01T10:18:22;19.02;;;17.33;;
13580;SDS011;6861;46.170;7.222;2023-03-01T10:20:53;20.02;;;18.13;;
13580;SDS011;6861;46.170;7.222;2023-03-01T10:23:25;19.70;;;17.98;;
13580;SDS011;6861;46.170;7.222;2023-03-01T10:25:59;21.17;;;19.13;;
13580;SDS011;6861;46.170;7.222;2023-03-01T10:28:46;20.48;;;18.48;;
13580;SDS011;6861;46.170;7.222;2023-03-01T10:31:23;19.85;;;17.85;;
13580;SDS011;6861;46.170;7.222;2023-03-01T10:33:56;19.90;;;18.05;;
13580;SDS011;6861;46.170;7.222;2023-03-01T10:36:25;20.92;;;19.02;;
13580;SDS011;6861;46.170;7.222;2023-03-01T10:38:54;20.42;;;18.48;;
13580;SDS011;6861;46.170;7.222;2023-03-01T10:41:24;20.55;;;18.70;;
13580;SDS011;6861;46.170;7.222;2023-03-01T10:43:57;19.95;;;18.05;;
13580;SDS011;6861;46.170;7.222;2023-03-01T10:46:29;20.65;;;18.73;;
13580;SDS011;6861;46.170;7.222;2023-03-01T10:49:13;19.23;;;17.42;;
13580;SDS011;6861;46.170;7.222;2023-03-01T10:51:43;20.17;;;18.30;;
13580;SDS011;6861;46.170;7.222;2023-03-01T10:54:16;21.55;;;19.30;;
13580;SDS011;6861;46.170;7.222;2023-03-01T10:56:47;19.88;;;17.88;;
13580;SDS011;6861;46.170;7.222;2023-03-01T10:59:20;22.08;;;20.02;;
13580;SDS011;6861;46.170;7.222;2023-03-01T11:02:15;20.55;;;18.55;;
13580;SDS011;6861;46.170;7.222;2023-03-01T11:04:58;19.35;;;17.55;;
13580;SDS011;6861;46.170;7.222;2023-03-01T11:07:28;21.55;;;18.00;;
13580;SDS011;6861;46.170;7.222;2023-03-01T11:09:56;19.27;;;17.45;;
13580;SDS011;6861;46.170;7.222;2023-03-01T11:12:24;17.77;;;16.17;;
13580;SDS011;6861;46.170;7.222;2023-03-01T11:14:56;17.90;;;16.20;;
13580;SDS011;6861;46.170;7.222;2023-03-01T11:17:26;18.30;;;16.55;;
13580;SDS011;6861;46.170;7.222;2023-03-01T11:20:06;18.17;;;16.48;;
13580;SDS011;6861;46.170;7.222;2023-03-01T11:22:45;17.88;;;16.27;;
13580;SDS011;6861;46.170;7.222;2023-03-01T11:25:15;18.73;;;16.98;;
13580;SDS011;6861;46.170;7.222;2023-03-01T11:27:47;15.68;;;14.18;;
13580;SDS011;6861;46.170;7.222;2023-03-01T11:30:16;15.70;;;14.00;;
13580;SDS011;6861;46.170;7.222;2023-03-01T11:32:50;17.85;;;16.15;;
13580;SDS011;6861;46.170;7.222;2023-03-01T11:35:25;16.40;;;14.90;;
13580;SDS011;6861;46.170;7.222;2023-03-01T11:37:58;15.65;;;14.05;;
13580;SDS011;6861;46.170;7.222;2023-03-01T11:40:33;16.02;;;14.43;;
13580;SDS011;6861;46.170;7.222;2023-03-01T11:43:09;15.60;;;14.20;;
13580;SDS011;6861;46.170;7.222;2023-03-01T11:45:48;13.98;;;12.77;;
13580;SDS011;6861;46.170;7.222;2023-03-01T11:48:37;15.70;;;14.30;;
13580;SDS011;6861;46.170;7.222;2023-03-01T11:51:17;15.30;;;13.77;;
13580;SDS011;6861;46.170;7.222;2023-03-01T11:53:55;13.90;;;12.27;;
13580;SDS011;6861;46.170;7.222;2023-03-01T11:56:34;16.05;;;14.45;;
13580;SDS011;6861;46.170;7.222;2023-03-01T12:02:16;16.90;;;13.20;;
13580;SDS011;6861;46.170;7.222;2023-03-01T12:05:05;16.50;;;14.80;;
13580;SDS011;6861;46.170;7.222;2023-03-01T12:08:05;16.85;;;13.52;;
13580;SDS011;6861;46.170;7.222;2023-03-01T12:10:42;17.25;;;14.60;;
13580;SDS011;6861;46.170;7.222;2023-03-01T12:13:23;24.52;;;17.60;;
13580;SDS011;6861;46.170;7.222;2023-03-01T12:16:23;17.45;;;13.82;;
13580;SDS011;6861;46.170;7.222;2023-03-01T12:19:10;19.95;;;15.20;;
13580;SDS011;6861;46.170;7.222;2023-03-01T12:21:59;21.98;;;13.35;;
13580;SDS011;6861;46.170;7.222;2023-03-01T12:27:59;18.65;;;15.25;;
13580;SDS011;6861;46.170;7.222;2023-03-01T12:30:56;21.23;;;14.85;;
13580;SDS011;6861;46.170;7.222;2023-03-01T12:33:38;19.20;;;14.77;;
13580;SDS011;6861;46.170;7.222;2023-03-01T12:39:17;19.00;;;15.23;;
13580;SDS011;6861;46.170;7.222;2023-03-01T12:42:00;18.67;;;13.88;;
13580;SDS011;6861;46.170;7.222;2023-03-01T12:44:39;21.15;;;14.38;;
13580;SDS011;6861;46.170;7.222;2023-03-01T12:47:19;20.00;;;15.23;;
13580;SDS011;6861;46.170;7.222;2023-03-01T12:49:54;15.63;;;13.52;;
13580;SDS011;6861;46.170;7.222;2023-03-01T12:52:27;19.27;;;15.20;;
13580;SDS011;6861;46.170;7.222;2023-03-01T12:55:06;18.67;;;14.90;;
13580;SDS011;6861;46.170;7.222;2023-03-01T12:57:46;24.92;;;15.40;;
13580;SDS011;6861;46.170;7.222;2023-03-01T13:00:23;18.48;;;14.10;;
13580;SDS011;6861;46.170;7.222;2023-03-01T13:02:57;15.05;;;13.45;;
13580;SDS011;6861;46.170;7.222;2023-03-01T13:05:36;19.25;;;14.48;;
13580;SDS011;6861;46.170;7.222;2023-03-01T13:08:11;17.75;;;13.85;;
13580;SDS011;6861;46.170;7.222;2023-03-01T13:10:49;19.80;;;14.38;;
13580;SDS011;6861;46.170;7.222;2023-03-01T13:13:20;19.00;;;13.60;;
13580;SDS011;6861;46.170;7.222;2023-03-01T13:15:49;18.08;;;14.48;;
13580;SDS011;6861;46.170;7.222;2023-03-01T13:18:29;17.75;;;14.57;;
13580;SDS011;6861;46.170;7.222;2023-03-01T13:21:03;20.08;;;14.27;;
13580;SDS011;6861;46.170;7.222;2023-03-01T13:23:33;17.20;;;13.20;;
13580;SDS011;6861;46.170;7.222;2023-03-01T13:26:15;16.10;;;13.68;;
13580;SDS011;6861;46.170;7.222;2023-03-01T13:28:48;19.50;;;14.00;;
13580;SDS011;6861;46.170;7.222;2023-03-01T13:34:49;19.48;;;14.20;;
13580;SDS011;6861;46.170;7.222;2023-03-01T13:37:28;18.98;;;15.00;;
13580;SDS011;6861;46.170;7.222;2023-03-01T13:40:04;18.80;;;12.95;;
13580;SDS011;6861;46.170;7.222;2023-03-01T13:42:51;17.38;;;14.00;;
13580;SDS011;6861;46.170;7.222;2023-03-01T13:45:35;21.80;;;13.93;;
13580;SDS011;6861;46.170;7.222;2023-03-01T13:48:08;17.63;;;14.07;;
13580;SDS011;6861;46.170;7.222;2023-03-01T13:50:42;22.80;;;14.45;;
13580;SDS011;6861;46.170;7.222;2023-03-01T13:53:14;18.50;;;13.40;;
13580;SDS011;6861;46.170;7.222;2023-03-01T13:55:46;21.58;;;14.13;;
13580;SDS011;6861;46.170;7.222;2023-03-01T13:58:23;18.75;;;14.10;;
13580;SDS011;6861;46.170;7.222;2023-03-01T14:00:57;19.98;;;13.73;;
13580;SDS011;6861;46.170;7.222;2023-03-01T14:03:27;17.55;;;12.35;;
13580;SDS011;6861;46.170;7.222;2023-03-01T14:05:58;21.05;;;14.20;;
13580;SDS011;6861;46.170;7.222;2023-03-01T14:08:39;22.80;;;12.70;;
13580;SDS011;6861;46.170;7.222;2023-03-01T14:11:20;19.17;;;13.93;;
13580;SDS011;6861;46.170;7.222;2023-03-01T14:14:18;25.63;;;14.75;;
13580;SDS011;6861;46.170;7.222;2023-03-01T14:17:18;17.05;;;13.75;;
13580;SDS011;6861;46.170;7.222;2023-03-01T14:20:07;20.55;;;14.07;;
13580;SDS011;6861;46.170;7.222;2023-03-01T14:22:40;22.92;;;14.50;;
13580;SDS011;6861;46.170;7.222;2023-03-01T14:25:16;21.05;;;14.30;;
13580;SDS011;6861;46.170;7.222;2023-03-01T14:27:51;23.50;;;14.18;;
13580;SDS011;6861;46.170;7.222;2023-03-01T14:30:26;19.38;;;13.82;;
13580;SDS011;6861;46.170;7.222;2023-03-01T14:32:59;17.95;;;12.77;;
13580;SDS011;6861;46.170;7.222;2023-03-01T14:35:29;20.50;;;13.93;;
13580;SDS011;6861;46.170;7.222;2023-03-01T14:37:58;16.77;;;12.38;;
13580;SDS011;6861;46.170;7.222;2023-03-01T14:40:28;21.17;;;13.23;;
13580;SDS011;6861;46.170;7.222;2023-03-01T14:42:58;20.70;;;14.15;;
13580;SDS011;6861;46.170;7.222;2023-03-01T14:45:29;16.50;;;12.48;;
13580;SDS011;6861;46.170;7.222;2023-03-01T14:47:58;21.20;;;14.43;;
13580;SDS011;6861;46.170;7.222;2023-03-01T14:50:28;17.80;;;12.60;;
13580;SDS011;6861;46.170;7.222;2023-03-01T14:52:58;20.48;;;15.02;;
13580;SDS011;6861;46.170;7.222;2023-03-01T14:55:29;21.73;;;14.63;;
13580;SDS011;6861;46.170;7.222;2023-03-01T14:58:03;21.50;;;14.73;;
13580;SDS011;6861;46.170;7.222;2023-03-01T15:00:33;18.73;;;13.82;;
13580;SDS011;6861;46.170;7.222;2023-03-01T15:03:04;19.23;;;14.85;;
13580;SDS011;6861;46.170;7.222;2023-03-01T15:05:40;18.42;;;14.55;;
13580;SDS011;6861;46.170;7.222;2023-03-01T15:08:11;17.27;;;11.75;;
13580;SDS011;6861;46.170;7.222;2023-03-01T15:10:55;16.35;;;11.88;;
13580;SDS011;6861;46.170;7.222;2023-03-01T15:13:28;18.08;;;12.88;;
13580;SDS011;6861;46.170;7.222;2023-03-01T15:16:06;22.27;;;14.85;;
13580;SDS011;6861;46.170;7.222;2023-03-01T15:18:37;20.42;;;14.70;;